createdAt,value
2018-08-24T00:00:19.822Z,999.6
2018-08-24T00:01:22.222Z,999.6
2018-08-24T00:02:24.314Z,999.6
2018-08-24T00:03:26.421Z,999.6
2018-08-24T00:04:28.909Z,999.5
2018-08-24T00:05:30.998Z,999.5
2018-08-24T00:06:33.097Z,999.5
2018-08-24T00:07:35.222Z,999.5
2018-08-24T00:08:37.300Z,999.5
2018-08-24T00:09:39.795Z,999.4
2018-08-24T00:10:41.906Z,999.5
2018-08-24T00:11:43.999Z,999.5
2018-08-24T00:12:46.509Z,999.5
2018-08-24T00:13:48.910Z,999.5
2018-08-24T00:14:51.015Z,999.5
2018-08-24T00:15:53.108Z,999.5
2018-08-24T00:16:55.222Z,999.5
2018-08-24T00:17:57.314Z,999.5
2018-08-24T00:18:59.410Z,999.4
2018-08-24T00:20:01.515Z,999.4
2018-08-24T00:21:03.603Z,999.4
2018-08-24T00:22:05.720Z,999.4
2018-08-24T00:23:08.111Z,999.4
2018-08-24T00:24:10.902Z,999.4
2018-08-24T00:25:13.283Z,999.4
2018-08-24T00:26:15.392Z,999.4
2018-08-24T00:27:17.486Z,999.3
2018-08-24T00:28:19.580Z,999.3
2018-08-24T00:29:21.695Z,999.4
2018-08-24T00:30:23.784Z,999.3
2018-08-24T00:31:26.203Z,999.3
2018-08-24T00:32:28.310Z,999.3
2018-08-24T00:33:30.708Z,999.3
2018-08-24T00:34:32.801Z,999.3
2018-08-24T00:35:34.911Z,999.3
2018-08-24T00:36:37.005Z,999.3
2018-08-24T00:37:39.499Z,999.3
2018-08-24T00:38:41.910Z,999.2
2018-08-24T00:39:44.009Z,999.2
2018-08-24T00:40:46.113Z,999.2
2018-08-24T00:41:48.201Z,999.2
2018-08-24T00:42:50.340Z,999.1
2018-08-24T00:43:52.413Z,999.1
2018-08-24T00:44:54.506Z,999.1
2018-08-24T00:45:56.621Z,999.1
2018-08-24T00:46:58.716Z,999
2018-08-24T00:48:00.818Z,999.1
2018-08-24T00:49:03.212Z,999.1
2018-08-24T00:50:05.325Z,999.1
2018-08-24T00:51:07.419Z,999.1
2018-08-24T00:52:09.906Z,999.1
2018-08-24T00:53:12.017Z,999.1
2018-08-24T00:54:14.106Z,999.1
2018-08-24T00:55:16.216Z,999.1
2018-08-24T00:56:18.707Z,999
2018-08-24T00:57:20.815Z,999.1
2018-08-24T00:58:22.907Z,999.1
2018-08-24T00:59:25.016Z,999.1
2018-08-24T01:00:27.115Z,999.1
2018-08-24T01:01:29.212Z,999.1
2018-08-24T01:02:31.616Z,999
2018-08-24T01:03:34.092Z,999
2018-08-24T01:04:36.193Z,999
2018-08-24T01:05:38.303Z,999
2018-08-24T01:06:40.692Z,999
2018-08-24T01:07:42.873Z,999
2018-08-24T01:08:44.888Z,999
2018-08-24T01:09:46.980Z,999
2018-08-24T01:10:49.077Z,999
2018-08-24T01:11:51.183Z,999
2018-08-24T01:12:53.282Z,999
2018-08-24T01:13:55.379Z,998.9
2018-08-24T01:14:57.485Z,998.9
2018-08-24T01:15:59.581Z,998.9
2018-08-24T01:17:01.682Z,998.9
2018-08-24T01:18:04.172Z,998.9
2018-08-24T01:19:06.284Z,998.9
2018-08-24T01:20:08.379Z,998.9
2018-08-24T01:21:11.059Z,998.9
2018-08-24T01:22:13.440Z,999
2018-08-24T01:23:15.558Z,998.9
2018-08-24T01:24:17.945Z,999
2018-08-24T01:25:20.337Z,998.9
2018-08-24T01:26:23.019Z,998.9
2018-08-24T01:27:25.104Z,998.9
2018-08-24T01:28:27.607Z,998.9
2018-08-24T01:29:29.708Z,998.8
2018-08-24T01:30:32.103Z,998.8
2018-08-24T01:31:34.192Z,998.8
2018-08-24T01:32:36.300Z,998.7
2018-08-24T01:33:38.399Z,998.7
2018-08-24T01:34:40.502Z,998.7
2018-08-24T01:35:42.909Z,998.7
2018-08-24T01:36:45.286Z,998.7
2018-08-24T01:37:47.390Z,998.7
2018-08-24T01:38:49.500Z,998.7
2018-08-24T01:39:51.907Z,998.8
2018-08-24T01:40:53.993Z,998.7
2018-08-24T01:41:56.103Z,998.8
2018-08-24T01:42:58.196Z,998.7
2018-08-24T01:44:00.296Z,998.7
2018-08-24T01:45:02.408Z,998.7
2018-08-24T01:46:04.507Z,998.7
2018-08-24T01:47:06.604Z,998.7
2018-08-24T01:48:08.718Z,998.7
2018-08-24T01:49:11.118Z,998.7
2018-08-24T01:50:13.220Z,998.7
2018-08-24T01:51:15.714Z,998.7
2018-08-24T01:52:17.800Z,998.6
2018-08-24T01:53:19.908Z,998.7
2018-08-24T01:54:22.010Z,998.7
2018-08-24T01:55:24.123Z,998.7
2018-08-24T01:56:26.617Z,998.7
2018-08-24T01:57:28.709Z,998.7
2018-08-24T01:58:31.103Z,998.7
2018-08-24T01:59:33.211Z,998.8
2018-08-24T02:00:35.301Z,998.8
2018-08-24T02:01:37.697Z,998.8
2018-08-24T02:02:39.799Z,998.8
2018-08-24T02:03:42.295Z,998.8
2018-08-24T02:04:44.672Z,998.9
2018-08-24T02:05:46.782Z,998.8
2018-08-24T02:06:48.876Z,998.8
2018-08-24T02:07:50.972Z,998.9
2018-08-24T02:08:53.085Z,998.9
2018-08-24T02:09:55.755Z,998.9
2018-08-24T02:10:57.857Z,998.9
2018-08-24T02:11:59.968Z,998.9
2018-08-24T02:13:02.068Z,998.9
2018-08-24T02:14:04.165Z,998.9
2018-08-24T02:15:06.269Z,998.9
2018-08-24T02:16:08.358Z,998.9
2018-08-24T02:17:10.457Z,998.9
2018-08-24T02:18:12.579Z,998.8
2018-08-24T02:19:14.683Z,998.8
2018-08-24T02:20:17.175Z,998.8
2018-08-24T02:21:19.726Z,998.8
2018-08-24T02:22:21.824Z,998.8
2018-08-24T02:23:23.914Z,998.8
2018-08-24T02:24:26.021Z,998.8
2018-08-24T02:25:28.496Z,998.8
2018-08-24T02:26:30.896Z,998.8
2018-08-24T02:27:32.998Z,998.8
2018-08-24T02:28:35.106Z,998.8
2018-08-24T02:29:37.582Z,998.8
2018-08-24T02:30:39.688Z,998.8
2018-08-24T02:31:41.794Z,998.8
2018-08-24T02:32:44.282Z,998.7
2018-08-24T02:33:46.395Z,998.8
2018-08-24T02:34:48.485Z,998.8
2018-08-24T02:35:50.984Z,998.7
2018-08-24T02:36:53.077Z,998.8
2018-08-24T02:37:55.190Z,998.7
2018-08-24T02:38:57.279Z,998.8
2018-08-24T02:39:59.389Z,998.8
2018-08-24T02:41:01.781Z,998.7
2018-08-24T02:42:04.258Z,998.7
2018-08-24T02:43:06.367Z,998.7
2018-08-24T02:44:08.774Z,998.7
2018-08-24T02:45:10.986Z,998.7
2018-08-24T02:46:12.970Z,998.6
2018-08-24T02:47:15.077Z,998.6
2018-08-24T02:48:17.168Z,998.5
2018-08-24T02:49:19.570Z,998.5
2018-08-24T02:50:21.974Z,998.5
2018-08-24T02:51:24.071Z,998.5
2018-08-24T02:52:26.853Z,998.5
2018-08-24T02:53:29.359Z,998.5
2018-08-24T02:54:31.451Z,998.5
2018-08-24T02:55:33.849Z,998.5
2018-08-24T02:56:35.954Z,998.5
2018-08-24T02:57:38.052Z,998.6
2018-08-24T02:58:40.168Z,998.6
2018-08-24T02:59:42.555Z,998.6
2018-08-24T03:00:44.659Z,998.6
2018-08-24T03:01:46.756Z,998.6
2018-08-24T03:02:48.872Z,998.6
2018-08-24T03:03:50.968Z,998.6
2018-08-24T03:04:53.068Z,998.5
2018-08-24T03:05:55.178Z,998.6
2018-08-24T03:06:57.261Z,998.5
2018-08-24T03:07:59.369Z,998.5
2018-08-24T03:09:01.470Z,998.5
2018-08-24T03:10:03.570Z,998.5
2018-08-24T03:11:05.945Z,998.5
2018-08-24T03:12:08.052Z,998.5
2018-08-24T03:13:10.174Z,998.5
2018-08-24T03:14:12.671Z,998.5
2018-08-24T03:15:14.759Z,998.5
2018-08-24T03:16:17.321Z,998.5
2018-08-24T03:17:19.361Z,998.5
2018-08-24T03:18:21.753Z,998.5
2018-08-24T03:19:23.854Z,998.5
2018-08-24T03:20:25.967Z,998.5
2018-08-24T03:21:28.059Z,998.5
2018-08-24T03:22:30.169Z,998.5
2018-08-24T03:23:32.271Z,998.6
2018-08-24T03:24:34.652Z,998.5
2018-08-24T03:25:36.751Z,998.6
2018-08-24T03:26:38.862Z,998.6
2018-08-24T03:27:40.946Z,998.6
2018-08-24T03:28:43.122Z,998.5
2018-08-24T03:29:45.230Z,998.6
2018-08-24T03:30:47.607Z,998.5
2018-08-24T03:31:49.730Z,998.5
2018-08-24T03:32:52.512Z,998.5
2018-08-24T03:33:54.611Z,998.5
2018-08-24T03:34:56.703Z,998.5
2018-08-24T03:35:59.039Z,998.6
2018-08-24T03:37:01.142Z,998.5
2018-08-24T03:38:03.270Z,998.5
2018-08-24T03:39:05.743Z,998.5
2018-08-24T03:40:08.139Z,998.5
2018-08-24T03:41:10.247Z,998.5
2018-08-24T03:42:12.635Z,998.5
2018-08-24T03:43:14.743Z,998.5
2018-08-24T03:44:17.123Z,998.5
2018-08-24T03:45:19.238Z,998.5
2018-08-24T03:46:22.521Z,998.5
2018-08-24T03:47:24.619Z,998.5
2018-08-24T03:48:26.729Z,998.5
2018-08-24T03:49:29.138Z,998.4
2018-08-24T03:50:31.532Z,998.4
2018-08-24T03:51:33.634Z,998.3
2018-08-24T03:52:35.721Z,998.4
2018-08-24T03:53:38.186Z,998.3
2018-08-24T03:54:40.280Z,998.4
2018-08-24T03:55:42.387Z,998.4
2018-08-24T03:56:44.490Z,998.4
2018-08-24T03:57:46.979Z,998.4
2018-08-24T03:58:49.687Z,998.3
2018-08-24T03:59:51.796Z,998.3
2018-08-24T04:00:53.886Z,998.4
2018-08-24T04:01:56.288Z,998.3
2018-08-24T04:02:58.701Z,998.4
2018-08-24T04:04:01.192Z,998.4
2018-08-24T04:05:03.318Z,998.4
2018-08-24T04:06:05.406Z,998.3
2018-08-24T04:07:07.896Z,998.3
2018-08-24T04:08:09.991Z,998.3
2018-08-24T04:09:12.393Z,998.3
2018-08-24T04:10:14.491Z,998.4
2018-08-24T04:11:16.595Z,998.4
2018-08-24T04:12:18.710Z,998.4
2018-08-24T04:13:21.085Z,998.4
2018-08-24T04:14:23.196Z,998.4
2018-08-24T04:15:25.588Z,998.3
2018-08-24T04:16:28.120Z,998.3
2018-08-24T04:17:30.170Z,998.3
2018-08-24T04:18:32.668Z,998.4
2018-08-24T04:19:34.829Z,998.3
2018-08-24T04:20:37.965Z,998.3
2018-08-24T04:21:40.080Z,998.3
2018-08-24T04:22:42.167Z,998.3
2018-08-24T04:23:44.270Z,998.3
2018-08-24T04:24:46.694Z,998.3
2018-08-24T04:25:48.862Z,998.3
2018-08-24T04:26:50.883Z,998.3
2018-08-24T04:27:53.272Z,998.4
2018-08-24T04:28:55.676Z,998.3
2018-08-24T04:29:57.775Z,998.4
2018-08-24T04:31:00.645Z,998.4
2018-08-24T04:32:02.749Z,998.5
2018-08-24T04:33:04.861Z,998.4
2018-08-24T04:34:06.950Z,998.4
2018-08-24T04:35:09.066Z,998.5
2018-08-24T04:36:11.168Z,998.4
2018-08-24T04:37:13.549Z,998.4
2018-08-24T04:38:15.663Z,998.4
2018-08-24T04:39:18.441Z,998.4
2018-08-24T04:40:20.616Z,998.4
2018-08-24T04:41:22.635Z,998.4
2018-08-24T04:42:24.744Z,998.5
2018-08-24T04:43:27.223Z,998.4
2018-08-24T04:44:29.323Z,998.4
2018-08-24T04:45:31.459Z,998.5
2018-08-24T04:46:34.274Z,998.4
2018-08-24T04:47:36.776Z,998.4
2018-08-24T04:48:38.876Z,998.3
2018-08-24T04:49:40.984Z,998.4
2018-08-24T04:50:43.425Z,998.4
2018-08-24T04:51:45.495Z,998.4
2018-08-24T04:52:47.591Z,998.4
2018-08-24T04:53:49.684Z,998.4
2018-08-24T04:54:52.193Z,998.4
2018-08-24T04:55:54.279Z,998.4
2018-08-24T04:56:56.667Z,998.4
2018-08-24T04:57:59.169Z,998.4
2018-08-24T04:59:01.271Z,998.4
2018-08-24T05:00:03.363Z,998.3
2018-08-24T05:01:05.755Z,998.4
2018-08-24T05:02:07.851Z,998.4
2018-08-24T05:03:09.955Z,998.3
2018-08-24T05:04:12.672Z,998.4
2018-08-24T05:05:14.805Z,998.3
2018-08-24T05:06:17.170Z,998.4
2018-08-24T05:07:19.275Z,998.3
2018-08-24T05:08:21.674Z,998.3
2018-08-24T05:09:23.768Z,998.4
2018-08-24T05:10:26.192Z,998.4
2018-08-24T05:11:28.572Z,998.5
2018-08-24T05:12:30.679Z,998.4
2018-08-24T05:13:32.783Z,998.5
2018-08-24T05:14:35.204Z,998.5
2018-08-24T05:15:37.295Z,998.5
2018-08-24T05:16:39.690Z,998.5
2018-08-24T05:17:41.792Z,998.4
2018-08-24T05:18:43.881Z,998.4
2018-08-24T05:19:45.996Z,998.4
2018-08-24T05:20:48.086Z,998.4
2018-08-24T05:21:50.186Z,998.4
2018-08-24T05:22:52.281Z,998.4
2018-08-24T05:23:54.401Z,998.4
2018-08-24T05:24:56.788Z,998.4
2018-08-24T05:25:59.189Z,998.4
2018-08-24T05:27:01.291Z,998.4
2018-08-24T05:28:03.402Z,998.4
2018-08-24T05:29:05.822Z,998.4
2018-08-24T05:30:07.921Z,998.4
2018-08-24T05:31:10.011Z,998.4
2018-08-24T05:32:12.113Z,998.4
2018-08-24T05:33:14.913Z,998.4
2018-08-24T05:34:17.397Z,998.4
2018-08-24T05:35:19.503Z,998.3
2018-08-24T05:36:21.604Z,998.3
2018-08-24T05:37:24.001Z,998.3
2018-08-24T05:38:26.704Z,998.3
2018-08-24T05:39:28.815Z,998.3
2018-08-24T05:40:31.226Z,998.2
2018-08-24T05:41:33.434Z,998.3
2018-08-24T05:42:35.445Z,998.3
2018-08-24T05:43:37.547Z,998.4
2018-08-24T05:44:40.019Z,998.4
2018-08-24T05:45:42.124Z,998.4
2018-08-24T05:46:44.220Z,998.4
2018-08-24T05:47:46.722Z,998.4
2018-08-24T05:48:48.881Z,998.4
2018-08-24T05:49:51.836Z,998.4
2018-08-24T05:50:54.224Z,998.4
2018-08-24T05:51:56.315Z,998.3
2018-08-24T05:52:58.433Z,998.4
2018-08-24T05:54:00.517Z,998.4
2018-08-24T05:55:03.202Z,998.4
2018-08-24T05:56:05.297Z,998.5
2018-08-24T05:57:07.411Z,998.5
2018-08-24T05:58:09.886Z,998.5
2018-08-24T05:59:12.286Z,998.5
2018-08-24T06:00:14.391Z,998.5
2018-08-24T06:01:16.761Z,998.5
2018-08-24T06:02:19.622Z,998.5
2018-08-24T06:03:21.737Z,998.5
2018-08-24T06:04:23.830Z,998.5
2018-08-24T06:05:25.926Z,998.5
2018-08-24T06:06:28.039Z,998.5
2018-08-24T06:07:30.138Z,998.6
2018-08-24T06:08:32.951Z,998.6
2018-08-24T06:09:35.050Z,998.6
2018-08-24T06:10:37.139Z,998.6
2018-08-24T06:11:39.242Z,998.6
2018-08-24T06:12:41.349Z,998.7
2018-08-24T06:13:43.438Z,998.7
2018-08-24T06:14:45.542Z,998.7
2018-08-24T06:15:47.715Z,998.7
2018-08-24T06:16:49.764Z,998.8
2018-08-24T06:17:52.536Z,998.8
2018-08-24T06:18:54.640Z,998.8
2018-08-24T06:19:56.743Z,998.7
2018-08-24T06:20:59.128Z,998.8
2018-08-24T06:22:01.236Z,998.7
2018-08-24T06:23:03.630Z,998.8
2018-08-24T06:24:06.020Z,998.7
2018-08-24T06:25:08.111Z,998.8
2018-08-24T06:26:10.614Z,998.8
2018-08-24T06:27:12.706Z,998.8
2018-08-24T06:28:15.483Z,998.7
2018-08-24T06:29:17.580Z,998.8
2018-08-24T06:30:19.692Z,998.8
2018-08-24T06:31:22.075Z,998.8
2018-08-24T06:32:24.177Z,998.9
2018-08-24T06:33:26.569Z,998.8
2018-08-24T06:34:28.653Z,998.9
2018-08-24T06:35:30.766Z,998.9
2018-08-24T06:36:32.867Z,998.9
2018-08-24T06:37:34.962Z,998.8
2018-08-24T06:38:37.743Z,998.9
2018-08-24T06:39:39.855Z,998.8
2018-08-24T06:40:41.952Z,998.9
2018-08-24T06:41:44.147Z,998.8
2018-08-24T06:42:46.157Z,998.9
2018-08-24T06:43:48.249Z,998.9
2018-08-24T06:44:50.347Z,998.9
2018-08-24T06:45:52.459Z,998.8
2018-08-24T06:46:54.550Z,998.9
2018-08-24T06:47:57.047Z,998.9
2018-08-24T06:48:59.155Z,999
2018-08-24T06:50:01.250Z,999
2018-08-24T06:51:04.051Z,999
2018-08-24T06:52:06.147Z,999
2018-08-24T06:53:08.332Z,999
2018-08-24T06:54:11.063Z,999
2018-08-24T06:55:13.178Z,999
2018-08-24T06:56:15.278Z,999
2018-08-24T06:57:17.661Z,999
2018-08-24T06:58:19.775Z,999.1
2018-08-24T06:59:21.872Z,999
2018-08-24T07:00:23.962Z,999.1
2018-08-24T07:01:26.065Z,999.1
2018-08-24T07:02:28.159Z,999.1
2018-08-24T07:03:30.274Z,999.2
2018-08-24T07:04:32.364Z,999.2
2018-08-24T07:05:34.862Z,999.2
2018-08-24T07:06:37.304Z,999.2
2018-08-24T07:07:39.397Z,999.2
2018-08-24T07:08:41.796Z,999.2
2018-08-24T07:09:44.191Z,999.2
2018-08-24T07:10:46.280Z,999.2
2018-08-24T07:11:48.383Z,999.2
2018-08-24T07:12:50.527Z,999.3
2018-08-24T07:13:52.955Z,999.2
2018-08-24T07:14:55.074Z,999.3
2018-08-24T07:15:57.564Z,999.2
2018-08-24T07:16:59.654Z,999.3
2018-08-24T07:18:01.768Z,999.3
2018-08-24T07:19:04.174Z,999.3
2018-08-24T07:20:06.265Z,999.3
2018-08-24T07:21:08.764Z,999.3
2018-08-24T07:22:11.259Z,999.3
2018-08-24T07:23:13.375Z,999.3
2018-08-24T07:24:15.501Z,999.3
2018-08-24T07:25:17.744Z,999.3
2018-08-24T07:26:20.199Z,999.2
2018-08-24T07:27:22.302Z,999.3
2018-08-24T07:28:24.417Z,999.3
2018-08-24T07:29:26.513Z,999.3
2018-08-24T07:30:29.618Z,999.3
2018-08-24T07:31:32.030Z,999.3
2018-08-24T07:32:34.112Z,999.4
2018-08-24T07:33:36.226Z,999.3
2018-08-24T07:34:38.718Z,999.4
2018-08-24T07:35:40.821Z,999.3
2018-08-24T07:36:43.976Z,999.4
2018-08-24T07:37:46.089Z,999.4
2018-08-24T07:38:48.189Z,999.4
2018-08-24T07:39:50.287Z,999.4
2018-08-24T07:40:52.688Z,999.5
2018-08-24T07:41:55.326Z,999.4
2018-08-24T07:42:57.308Z,999.5
2018-08-24T07:43:59.708Z,999.4
2018-08-24T07:45:01.812Z,999.3
2018-08-24T07:46:03.908Z,999.5
2018-08-24T07:47:06.015Z,999.5
2018-08-24T07:48:08.115Z,999.5
2018-08-24T07:49:10.219Z,999.5
2018-08-24T07:50:12.617Z,999.5
2018-08-24T07:51:15.006Z,999.6
2018-08-24T07:52:17.399Z,999.6
2018-08-24T07:53:19.525Z,999.6
2018-08-24T07:54:21.911Z,999.5
2018-08-24T07:55:24.012Z,999.5
2018-08-24T07:56:26.128Z,999.5
2018-08-24T07:57:28.217Z,999.5
2018-08-24T07:58:30.323Z,999.5
2018-08-24T07:59:32.432Z,999.5
2018-08-24T08:00:34.537Z,999.5
2018-08-24T08:01:36.627Z,999.6
2018-08-24T08:02:38.739Z,999.6
2018-08-24T08:03:40.838Z,999.6
2018-08-24T08:04:42.929Z,999.6
2018-08-24T08:05:45.050Z,999.5
2018-08-24T08:06:47.138Z,999.7
2018-08-24T08:07:49.531Z,999.7
2018-08-24T08:08:51.629Z,999.7
2018-08-24T08:09:54.032Z,999.7
2018-08-24T08:10:56.124Z,999.7
2018-08-24T08:11:58.232Z,999.8
2018-08-24T08:13:00.343Z,999.7
2018-08-24T08:14:02.728Z,999.7
2018-08-24T08:15:05.129Z,999.8
2018-08-24T08:16:07.229Z,999.8
2018-08-24T08:17:09.343Z,999.8
2018-08-24T08:18:11.880Z,999.8
2018-08-24T08:19:13.916Z,999.8
2018-08-24T08:20:16.024Z,999.8
2018-08-24T08:21:18.114Z,999.8
2018-08-24T08:22:20.212Z,999.8
2018-08-24T08:23:22.716Z,999.8
2018-08-24T08:24:24.820Z,999.8
2018-08-24T08:25:27.202Z,999.8
2018-08-24T08:26:30.031Z,999.8
2018-08-24T08:27:32.126Z,999.8
2018-08-24T08:28:34.220Z,999.8
2018-08-24T08:29:36.332Z,999.8
2018-08-24T08:30:38.420Z,999.8
2018-08-24T08:31:40.534Z,999.8
2018-08-24T08:32:42.643Z,999.8
2018-08-24T08:33:45.143Z,999.8
2018-08-24T08:34:47.232Z,999.8
2018-08-24T08:35:49.340Z,999.8
2018-08-24T08:36:51.443Z,999.8
2018-08-24T08:37:53.538Z,999.9
2018-08-24T08:38:55.696Z,999.9
2018-08-24T08:39:58.091Z,999.8
2018-08-24T08:41:00.197Z,999.8
2018-08-24T08:42:02.300Z,999.8
2018-08-24T08:43:04.416Z,999.8
2018-08-24T08:44:06.517Z,999.8
2018-08-24T08:45:08.912Z,999.8
2018-08-24T08:46:11.025Z,999.8
2018-08-24T08:47:13.119Z,999.8
2018-08-24T08:48:15.626Z,999.7
2018-08-24T08:49:17.734Z,999.9
2018-08-24T08:50:19.822Z,999.8
2018-08-24T08:51:21.929Z,999.8
2018-08-24T08:52:24.046Z,999.9
2018-08-24T08:53:26.210Z,999.8
2018-08-24T08:54:28.238Z,999.8
2018-08-24T08:55:30.341Z,999.8
2018-08-24T08:56:32.453Z,999.8
2018-08-24T08:57:34.947Z,999.8
2018-08-24T08:58:37.043Z,999.9
2018-08-24T08:59:39.158Z,999.9
2018-08-24T09:00:41.262Z,999.9
2018-08-24T09:01:43.364Z,999.9
2018-08-24T09:02:45.475Z,999.9
2018-08-24T09:03:47.867Z,999.9
2018-08-24T09:04:49.979Z,999.8
2018-08-24T09:05:52.103Z,999.9
2018-08-24T09:06:54.211Z,999.8
2018-08-24T09:07:56.343Z,999.8
2018-08-24T09:08:58.522Z,999.8
2018-08-24T09:10:00.625Z,999.8
2018-08-24T09:11:02.716Z,999.8
2018-08-24T09:12:04.862Z,999.9
2018-08-24T09:13:06.927Z,999.9
2018-08-24T09:14:09.419Z,999.9
2018-08-24T09:15:11.527Z,999.8
2018-08-24T09:16:13.930Z,999.9
2018-08-24T09:17:16.025Z,999.9
2018-08-24T09:18:18.152Z,999.9
2018-08-24T09:19:20.550Z,1000
2018-08-24T09:20:22.638Z,1000
2018-08-24T09:21:24.747Z,1000
2018-08-24T09:22:26.852Z,1000
2018-08-24T09:23:28.954Z,1000
2018-08-24T09:24:31.352Z,1000.1
2018-08-24T09:25:33.549Z,1000.2
2018-08-24T09:26:35.564Z,1000.1
2018-08-24T09:27:37.682Z,1000.1
2018-08-24T09:28:40.181Z,1000
2018-08-24T09:29:42.279Z,1000.1
2018-08-24T09:30:44.679Z,1000
2018-08-24T09:31:46.783Z,1000.1
2018-08-24T09:32:48.951Z,1000
2018-08-24T09:33:51.011Z,1000.1
2018-08-24T09:34:53.114Z,1000
2018-08-24T09:35:55.226Z,1000.2
2018-08-24T09:36:57.326Z,1000
2018-08-24T09:37:59.481Z,1000.1
2018-08-24T09:39:01.544Z,1000
2018-08-24T09:40:03.949Z,1000
2018-08-24T09:41:06.045Z,1000
2018-08-24T09:42:08.157Z,999.9
2018-08-24T09:43:10.353Z,999.9
2018-08-24T09:44:12.362Z,999.8
2018-08-24T09:45:14.480Z,1000
2018-08-24T09:46:17.253Z,999.9
2018-08-24T09:47:19.358Z,999.8
2018-08-24T09:48:21.851Z,999.9
2018-08-24T09:49:24.266Z,999.9
2018-08-24T09:50:26.678Z,999.9
2018-08-24T09:51:29.074Z,999.9
2018-08-24T09:52:31.187Z,999.9
2018-08-24T09:53:33.276Z,999.8
2018-08-24T09:54:35.679Z,999.9
2018-08-24T09:55:37.804Z,999.9
2018-08-24T09:56:39.883Z,999.9
2018-08-24T09:57:42.607Z,999.9
2018-08-24T09:58:44.721Z,999.9
2018-08-24T09:59:46.819Z,999.9
2018-08-24T10:00:48.933Z,999.9
2018-08-24T10:01:51.037Z,999.8
2018-08-24T10:02:53.572Z,999.8
2018-08-24T10:03:56.010Z,999.9
2018-08-24T10:04:58.124Z,999.9
2018-08-24T10:06:00.213Z,999.9
2018-08-24T10:07:02.327Z,999.9
2018-08-24T10:08:04.444Z,999.9
2018-08-24T10:09:06.541Z,1000
2018-08-24T10:10:08.660Z,1000
2018-08-24T10:11:11.047Z,1000
2018-08-24T10:12:13.149Z,1000
2018-08-24T10:13:15.308Z,1000.1
2018-08-24T10:14:17.780Z,1000.1
2018-08-24T10:15:19.881Z,1000
2018-08-24T10:16:22.285Z,1000
2018-08-24T10:17:24.692Z,999.9
2018-08-24T10:18:26.788Z,999.9
2018-08-24T10:19:28.905Z,999.9
2018-08-24T10:20:31.326Z,1000
2018-08-24T10:21:33.437Z,1000.1
2018-08-24T10:22:35.822Z,1000.2
2018-08-24T10:23:37.933Z,1000.2
2018-08-24T10:24:40.060Z,1000.1
2018-08-24T10:25:42.126Z,1000
2018-08-24T10:26:44.245Z,1000
2018-08-24T10:27:46.627Z,1000
2018-08-24T10:28:48.734Z,999.9
2018-08-24T10:29:51.559Z,999.9
2018-08-24T10:30:53.586Z,999.8
2018-08-24T10:31:55.974Z,999.8
2018-08-24T10:32:58.084Z,999.8
2018-08-24T10:34:00.183Z,999.8
2018-08-24T10:35:02.332Z,999.8
2018-08-24T10:36:04.403Z,999.7
2018-08-24T10:37:06.509Z,999.8
2018-08-24T10:38:08.605Z,999.9
2018-08-24T10:39:10.774Z,999.9
2018-08-24T10:40:13.762Z,1000
2018-08-24T10:41:15.874Z,1000
2018-08-24T10:42:18.384Z,1000.1
2018-08-24T10:43:20.472Z,1000.1
2018-08-24T10:44:22.582Z,1000.1
2018-08-24T10:45:24.695Z,1000.1
2018-08-24T10:46:27.203Z,1000.2
2018-08-24T10:47:29.305Z,1000.2
2018-08-24T10:48:31.703Z,1000.3
2018-08-24T10:49:34.356Z,1000.2
2018-08-24T10:50:37.147Z,1000.2
2018-08-24T10:51:39.238Z,1000.2
2018-08-24T10:52:41.673Z,1000.3
2018-08-24T10:53:43.778Z,1000.2
2018-08-24T10:54:45.935Z,1000.3
2018-08-24T10:55:48.189Z,1000.3
2018-08-24T10:56:50.580Z,1000.3
2018-08-24T10:57:53.076Z,1000.3
2018-08-24T10:58:55.177Z,1000.3
2018-08-24T10:59:57.299Z,1000.3
2018-08-24T11:00:59.391Z,1000.3
2018-08-24T11:02:01.543Z,1000.3
2018-08-24T11:03:04.092Z,1000.3
2018-08-24T11:04:06.194Z,1000.3
2018-08-24T11:05:08.290Z,1000.3
2018-08-24T11:06:10.398Z,1000.3
2018-08-24T11:07:12.539Z,1000.3
2018-08-24T11:08:14.604Z,1000.4
2018-08-24T11:09:17.305Z,1000.4
2018-08-24T11:10:19.410Z,1000.3
2018-08-24T11:11:21.507Z,1000.4
2018-08-24T11:12:23.625Z,1000.5
2018-08-24T11:13:25.725Z,1000.4
2018-08-24T11:14:28.109Z,1000.4
2018-08-24T11:15:30.226Z,1000.4
2018-08-24T11:16:32.316Z,1000.4
2018-08-24T11:17:34.714Z,1000.5
2018-08-24T11:18:37.504Z,1000.5
2018-08-24T11:19:39.619Z,1000.5
2018-08-24T11:20:42.106Z,1000.6
2018-08-24T11:21:44.235Z,1000.5
2018-08-24T11:22:46.631Z,1000.5
2018-08-24T11:23:48.725Z,1000.5
2018-08-24T11:24:50.829Z,1000.5
2018-08-24T11:25:52.944Z,1000.5
2018-08-24T11:26:55.499Z,1000.5
2018-08-24T11:27:58.082Z,1000.5
2018-08-24T11:29:00.178Z,1000.5
2018-08-24T11:30:02.288Z,1000.5
2018-08-24T11:31:04.392Z,1000.5
2018-08-24T11:32:06.489Z,1000.5
2018-08-24T11:33:08.625Z,1000.5
2018-08-24T11:34:10.704Z,1000.5
2018-08-24T11:35:12.812Z,1000.4
2018-08-24T11:36:15.358Z,1000.5
2018-08-24T11:37:17.430Z,1000.5
2018-08-24T11:38:19.527Z,1000.5
2018-08-24T11:39:21.932Z,1000.5
2018-08-24T11:40:24.034Z,1000.4
2018-08-24T11:41:26.486Z,1000.5
2018-08-24T11:42:28.605Z,1000.4
2018-08-24T11:43:31.679Z,1000.5
2018-08-24T11:44:34.172Z,1000.5
2018-08-24T11:45:36.285Z,1000.5
2018-08-24T11:46:38.771Z,1000.6
2018-08-24T11:47:41.222Z,1000.5
2018-08-24T11:48:43.279Z,1000.6
2018-08-24T11:49:45.378Z,1000.6
2018-08-24T11:50:47.510Z,1000.5
2018-08-24T11:51:50.013Z,1000.5
2018-08-24T11:52:52.133Z,1000.6
2018-08-24T11:53:54.233Z,1000.7
2018-08-24T11:54:56.344Z,1000.6
2018-08-24T11:55:58.740Z,1000.6
2018-08-24T11:57:00.840Z,1000.5
2018-08-24T11:58:03.275Z,1000.5
2018-08-24T11:59:05.765Z,1000.5
2018-08-24T12:00:08.155Z,1000.6
2018-08-24T12:01:10.256Z,1000.5
2018-08-24T12:02:13.307Z,1000.5
2018-08-24T12:03:15.335Z,1000.5
2018-08-24T12:04:17.434Z,1000.5
2018-08-24T12:05:19.535Z,1000.5
2018-08-24T12:06:21.676Z,1000.5
2018-08-24T12:07:23.824Z,1000.5
2018-08-24T12:08:26.035Z,1000.5
2018-08-24T12:09:29.103Z,1000.5
2018-08-24T12:10:31.609Z,1000.4
2018-08-24T12:11:33.719Z,1000.4
2018-08-24T12:12:35.926Z,1000.5
2018-08-24T12:13:37.941Z,1000.5
2018-08-24T12:14:40.046Z,1000.4
2018-08-24T12:15:42.173Z,1000.3
2018-08-24T12:16:44.275Z,1000.4
2018-08-24T12:17:46.373Z,1000.4
2018-08-24T12:18:48.491Z,1000.5
2018-08-24T12:19:51.540Z,1000.4
2018-08-24T12:20:55.538Z,1000.4
2018-08-24T12:21:57.654Z,1000.3
2018-08-24T12:22:59.746Z,1000.4
2018-08-24T12:24:01.863Z,1000.4
2018-08-24T12:25:03.970Z,1000.4
2018-08-24T12:26:06.089Z,1000.4
2018-08-24T12:27:08.829Z,1000.4
2018-08-24T12:28:11.311Z,1000.4
2018-08-24T12:29:13.421Z,1000.4
2018-08-24T12:30:15.523Z,1000.5
2018-08-24T12:31:17.961Z,1000.5
2018-08-24T12:32:20.058Z,1000.4
2018-08-24T12:33:22.167Z,1000.4
2018-08-24T12:34:24.610Z,1000.4
2018-08-24T12:35:26.731Z,1000.4
2018-08-24T12:36:28.832Z,1000.5
2018-08-24T12:37:31.338Z,1000.6
2018-08-24T12:38:33.448Z,1000.5
2018-08-24T12:39:35.545Z,1000.5
2018-08-24T12:40:37.662Z,1000.5
2018-08-24T12:41:39.773Z,1000.5
2018-08-24T12:42:42.159Z,1000.6
2018-08-24T12:43:44.406Z,1000.6
2018-08-24T12:44:46.906Z,1000.6
2018-08-24T12:45:49.009Z,1000.5
2018-08-24T12:46:51.121Z,1000.6
2018-08-24T12:47:53.224Z,1000.6
2018-08-24T12:48:55.611Z,1000.5
2018-08-24T12:49:57.720Z,1000.6
2018-08-24T12:50:59.843Z,1000.6
2018-08-24T12:52:01.981Z,1000.5
2018-08-24T12:53:04.834Z,1000.6
2018-08-24T12:54:06.974Z,1000.6
2018-08-24T12:55:09.081Z,1000.5
2018-08-24T12:56:11.197Z,1000.5
2018-08-24T12:57:13.684Z,1000.5
2018-08-24T12:58:15.795Z,1000.5
2018-08-24T12:59:17.893Z,1000.6
2018-08-24T13:00:20.016Z,1000.6
2018-08-24T13:01:22.407Z,1000.6
2018-08-24T13:02:24.796Z,1000.5
2018-08-24T13:03:26.916Z,1000.5
2018-08-24T13:04:29.012Z,1000.4
2018-08-24T13:05:31.137Z,1000.5
2018-08-24T13:06:33.631Z,1000.4
2018-08-24T13:07:36.032Z,1000.3
2018-08-24T13:08:38.154Z,1000.4
2018-08-24T13:09:40.640Z,1000.3
2018-08-24T13:10:42.739Z,1000.3
2018-08-24T13:11:44.839Z,1000.4
2018-08-24T13:12:46.964Z,1000.4
2018-08-24T13:13:49.059Z,1000.4
2018-08-24T13:14:51.168Z,1000.3
2018-08-24T13:15:53.282Z,1000.4
2018-08-24T13:16:55.385Z,1000.4
2018-08-24T13:17:57.481Z,1000.3